sensor_id;sensor_type;location;lat;lon;timestamp;pressure;altitude;pressure_sealevel;temperature;humidity
74103;BME280;62853;46.166;3.640;2023-06-22T00:00:51;101695.94;;;20.15;100.00
74103;BME280;62853;46.166;3.640;2023-06-22T00:03:18;101711.72;;;20.18;100.00
74103;BME280;62853;46.166;3.640;2023-06-22T00:05:45;101717.06;;;20.18;100.00
74103;BME280;62853;46.166;3.640;2023-06-22T00:08:10;101715.53;;;20.16;100.00
74103;BME280;62853;46.166;3.640;2023-06-22T00:10:36;101710.53;;;20.11;100.00
74103;BME280;62853;46.166;3.640;2023-06-22T00:13:01;101723.41;;;20.17;100.00
74103;BME280;62853;46.166;3.640;2023-06-22T00:15:27;101717.72;;;20.11;100.00
74103;BME280;62853;46.166;3.640;2023-06-22T00:17:52;101717.72;;;20.11;100.00
74103;BME280;62853;46.166;3.640;2023-06-22T00:20:18;101710.31;;;20.03;100.00
74103;BME280;62853;46.166;3.640;2023-06-22T00:22:44;101710.78;;;20.08;100.00
74103;BME280;62853;46.166;3.640;2023-06-22T00:25:10;101719.69;;;19.97;100.00
74103;BME280;62853;46.166;3.640;2023-06-22T00:27:36;101710.44;;;20.01;100.00
74103;BME280;62853;46.166;3.640;2023-06-22T00:30:02;101712.84;;;20.04;100.00
74103;BME280;62853;46.166;3.640;2023-06-22T00:32:28;101710.94;;;19.95;100.00
74103;BME280;62853;46.166;3.640;2023-06-22T00:34:53;101708.00;;;19.98;100.00
74103;BME280;62853;46.166;3.640;2023-06-22T00:37:19;101712.88;;;19.93;100.00
74103;BME280;62853;46.166;3.640;2023-06-22T00:39:44;101701.81;;;19.98;100.00
74103;BME280;62853;46.166;3.640;2023-06-22T00:42:10;101697.81;;;19.92;100.00
74103;BME280;62853;46.166;3.640;2023-06-22T00:44:36;101696.34;;;19.99;100.00
74103;BME280;62853;46.166;3.640;2023-06-22T00:47:02;101698.66;;;20.04;100.00
74103;BME280;62853;46.166;3.640;2023-06-22T00:49:28;101692.41;;;20.15;100.00
74103;BME280;62853;46.166;3.640;2023-06-22T00:51:55;101702.50;;;20.11;100.00
74103;BME280;62853;46.166;3.640;2023-06-22T00:54:21;101701.06;;;20.07;100.00
74103;BME280;62853;46.166;3.640;2023-06-22T00:56:51;101695.09;;;20.15;100.00
74103;BME280;62853;46.166;3.640;2023-06-22T00:59:20;101696.69;;;20.06;100.00
74103;BME280;62853;46.166;3.640;2023-06-22T01:01:46;101699.59;;;20.14;100.00
74103;BME280;62853;46.166;3.640;2023-06-22T01:04:11;101694.97;;;20.05;100.00
74103;BME280;62853;46.166;3.640;2023-06-22T01:06:43;101705.44;;;20.08;100.00
74103;BME280;62853;46.166;3.640;2023-06-22T01:09:15;101702.16;;;20.16;100.00
74103;BME280;62853;46.166;3.640;2023-06-22T01:11:47;101698.75;;;20.14;100.00
74103;BME280;62853;46.166;3.640;2023-06-22T01:14:26;101697.16;;;20.22;100.00
74103;BME280;62853;46.166;3.640;2023-06-22T01:16:54;101689.13;;;20.22;100.00
74103;BME280;62853;46.166;3.640;2023-06-22T01:21:51;101686.66;;;20.31;100.00
74103;BME280;62853;46.166;3.640;2023-06-22T01:24:32;101705.88;;;20.24;100.00
74103;BME280;62853;46.166;3.640;2023-06-22T01:27:12;101709.41;;;20.25;100.00
74103;BME280;62853;46.166;3.640;2023-06-22T01:29:49;101690.66;;;20.25;100.00
74103;BME280;62853;46.166;3.640;2023-06-22T01:32:15;101694.06;;;20.27;100.00
74103;BME280;62853;46.166;3.640;2023-06-22T01:34:42;101697.97;;;20.23;100.00
74103;BME280;62853;46.166;3.640;2023-06-22T01:37:08;101692.50;;;20.24;100.00
74103;BME280;62853;46.166;3.640;2023-06-22T01:39:33;101683.41;;;20.16;100.00
74103;BME280;62853;46.166;3.640;2023-06-22T01:42:00;101683.28;;;20.17;100.00
74103;BME280;62853;46.166;3.640;2023-06-22T01:44:26;101686.81;;;20.18;100.00
74103;BME280;62853;46.166;3.640;2023-06-22T01:46:52;101684.50;;;20.13;100.00
74103;BME280;62853;46.166;3.640;2023-06-22T01:49:17;101693.25;;;20.15;100.00
74103;BME280;62853;46.166;3.640;2023-06-22T01:51:43;101688.78;;;20.04;100.00
74103;BME280;62853;46.166;3.640;2023-06-22T01:54:08;101687.47;;;19.99;100.00
74103;BME280;62853;46.166;3.640;2023-06-22T01:56:34;101700.44;;;20.03;100.00
74103;BME280;62853;46.166;3.640;2023-06-22T01:59:21;101695.09;;;20.03;100.00
74103;BME280;62853;46.166;3.640;2023-06-22T02:02:07;101682.00;;;20.00;100.00
74103;BME280;62853;46.166;3.640;2023-06-22T02:04:59;101681.13;;;20.00;100.00
74103;BME280;62853;46.166;3.640;2023-06-22T02:07:30;101678.97;;;19.94;100.00
74103;BME280;62853;46.166;3.640;2023-06-22T02:09:58;101678.38;;;19.90;100.00
74103;BME280;62853;46.166;3.640;2023-06-22T02:12:26;101682.97;;;19.99;100.00
74103;BME280;62853;46.166;3.640;2023-06-22T02:14:53;101674.59;;;19.93;100.00
74103;BME280;62853;46.166;3.640;2023-06-22T02:17:19;101689.44;;;19.97;100.00
74103;BME280;62853;46.166;3.640;2023-06-22T02:19:45;101677.41;;;19.91;100.00
74103;BME280;62853;46.166;3.640;2023-06-22T02:22:11;101677.41;;;19.91;100.00
74103;BME280;62853;46.166;3.640;2023-06-22T02:24:38;101677.28;;;19.81;100.00
74103;BME280;62853;46.166;3.640;2023-06-22T02:27:04;101669.88;;;19.85;100.00
74103;BME280;62853;46.166;3.640;2023-06-22T02:29:32;101676.31;;;19.82;100.00
74103;BME280;62853;46.166;3.640;2023-06-22T02:31:58;101678.28;;;19.80;100.00
74103;BME280;62853;46.166;3.640;2023-06-22T02:34:24;101663.31;;;19.78;100.00
74103;BME280;62853;46.166;3.640;2023-06-22T02:36:49;101664.53;;;19.74;100.00
74103;BME280;62853;46.166;3.640;2023-06-22T02:39:22;101661.63;;;19.77;100.00
74103;BME280;62853;46.166;3.640;2023-06-22T02:41:52;101653.75;;;19.75;100.00
74103;BME280;62853;46.166;3.640;2023-06-22T02:44:18;101660.88;;;19.75;100.00
74103;BME280;62853;46.166;3.640;2023-06-22T02:46:45;101651.91;;;19.76;100.00
74103;BME280;62853;46.166;3.640;2023-06-22T02:49:11;101654.06;;;19.70;100.00
74103;BME280;62853;46.166;3.640;2023-06-22T02:51:39;101656.63;;;19.72;100.00
74103;BME280;62853;46.166;3.640;2023-06-22T02:54:06;101657.72;;;19.81;100.00
74103;BME280;62853;46.166;3.640;2023-06-22T02:56:31;101649.09;;;19.88;100.00
74103;BME280;62853;46.166;3.640;2023-06-22T02:58:57;101650.88;;;19.99;100.00
74103;BME280;62853;46.166;3.640;2023-06-22T03:01:29;101648.22;;;19.99;100.00
74103;BME280;62853;46.166;3.640;2023-06-22T03:03:58;101632.28;;;19.98;100.00
74103;BME280;62853;46.166;3.640;2023-06-22T03:06:24;101637.25;;;20.02;100.00
74103;BME280;62853;46.166;3.640;2023-06-22T03:08:58;101635.06;;;20.07;100.00
74103;BME280;62853;46.166;3.640;2023-06-22T03:11:24;101641.84;;;20.12;100.00
74103;BME280;62853;46.166;3.640;2023-06-22T03:13:49;101631.72;;;20.15;100.00
74103;BME280;62853;46.166;3.640;2023-06-22T03:16:17;101621.31;;;20.12;100.00
74103;BME280;62853;46.166;3.640;2023-06-22T03:18:43;101622.03;;;20.14;100.00
74103;BME280;62853;46.166;3.640;2023-06-22T03:21:08;101616.94;;;20.11;100.00
74103;BME280;62853;46.166;3.640;2023-06-22T03:23:34;101617.56;;;20.03;100.00
74103;BME280;62853;46.166;3.640;2023-06-22T03:25:59;101606.25;;;20.00;100.00
74103;BME280;62853;46.166;3.640;2023-06-22T03:28:25;101607.00;;;20.02;100.00
74103;BME280;62853;46.166;3.640;2023-06-22T03:30:50;101607.50;;;19.96;100.00
74103;BME280;62853;46.166;3.640;2023-06-22T03:33:15;101605.09;;;19.93;100.00
74103;BME280;62853;46.166;3.640;2023-06-22T03:35:41;101602.31;;;19.83;100.00
74103;BME280;62853;46.166;3.640;2023-06-22T03:38:07;101601.22;;;19.85;100.00
74103;BME280;62853;46.166;3.640;2023-06-22T03:40:32;101595.16;;;19.83;100.00
74103;BME280;62853;46.166;3.640;2023-06-22T03:42:58;101594.41;;;19.81;100.00
74103;BME280;62853;46.166;3.640;2023-06-22T03:45:23;101602.56;;;19.80;100.00
74103;BME280;62853;46.166;3.640;2023-06-22T03:47:48;101598.19;;;19.79;100.00
74103;BME280;62853;46.166;3.640;2023-06-22T03:50:14;101607.91;;;19.80;100.00
74103;BME280;62853;46.166;3.640;2023-06-22T03:52:40;101605.72;;;19.74;100.00
74103;BME280;62853;46.166;3.640;2023-06-22T03:55:06;101609.72;;;19.68;100.00
74103;BME280;62853;46.166;3.640;2023-06-22T03:57:32;101611.06;;;19.74;100.00
74103;BME280;62853;46.166;3.640;2023-06-22T03:59:57;101610.56;;;19.80;100.00
74103;BME280;62853;46.166;3.640;2023-06-22T04:02:23;101601.47;;;19.82;100.00
74103;BME280;62853;46.166;3.640;2023-06-22T04:04:48;101610.84;;;19.77;100.00
74103;BME280;62853;46.166;3.640;2023-06-22T04:07:14;101615.09;;;19.79;100.00
74103;BME280;62853;46.166;3.640;2023-06-22T04:09:39;101613.47;;;19.88;100.00
74103;BME280;62853;46.166;3.640;2023-06-22T04:12:05;101610.19;;;19.96;100.00
74103;BME280;62853;46.166;3.640;2023-06-22T04:14:30;101604.94;;;20.05;100.00
74103;BME280;62853;46.166;3.640;2023-06-22T04:16:57;101605.28;;;20.12;100.00
74103;BME280;62853;46.166;3.640;2023-06-22T04:19:23;101607.81;;;20.14;100.00
74103;BME280;62853;46.166;3.640;2023-06-22T04:21:48;101608.28;;;20.19;100.00
74103;BME280;62853;46.166;3.640;2023-06-22T04:24:14;101599.13;;;20.21;100.00
74103;BME280;62853;46.166;3.640;2023-06-22T04:26:39;101605.59;;;20.19;100.00
74103;BME280;62853;46.166;3.640;2023-06-22T04:29:07;101599.63;;;20.15;100.00
74103;BME280;62853;46.166;3.640;2023-06-22T04:31:36;101612.41;;;20.12;100.00
74103;BME280;62853;46.166;3.640;2023-06-22T04:34:03;101605.00;;;20.15;100.00
74103;BME280;62853;46.166;3.640;2023-06-22T04:36:36;101601.47;;;20.15;100.00
74103;BME280;62853;46.166;3.640;2023-06-22T04:39:07;101602.06;;;20.18;100.00
74103;BME280;62853;46.166;3.640;2023-06-22T04:41:37;101608.28;;;20.19;100.00
74103;BME280;62853;46.166;3.640;2023-06-22T04:44:10;101609.72;;;20.23;100.00
74103;BME280;62853;46.166;3.640;2023-06-22T04:46:36;101614.16;;;20.34;100.00
74103;BME280;62853;46.166;3.640;2023-06-22T04:49:09;101607.44;;;20.39;100.00
74103;BME280;62853;46.166;3.640;2023-06-22T04:51:40;101612.47;;;20.33;100.00
74103;BME280;62853;46.166;3.640;2023-06-22T04:54:06;101602.09;;;20.39;100.00
74103;BME280;62853;46.166;3.640;2023-06-22T04:56:32;101608.63;;;20.47;100.00
74103;BME280;62853;46.166;3.640;2023-06-22T04:58:57;101605.94;;;20.47;100.00
74103;BME280;62853;46.166;3.640;2023-06-22T05:01:23;101610.06;;;20.51;100.00
74103;BME280;62853;46.166;3.640;2023-06-22T05:03:49;101612.34;;;20.55;100.00
74103;BME280;62853;46.166;3.640;2023-06-22T05:06:15;101606.59;;;20.60;100.00
74103;BME280;62853;46.166;3.640;2023-06-22T05:08:40;101603.09;;;20.59;100.00
74103;BME280;62853;46.166;3.640;2023-06-22T05:11:06;101599.91;;;20.66;100.00
74103;BME280;62853;46.166;3.640;2023-06-22T05:13:32;101594.28;;;20.69;100.00
74103;BME280;62853;46.166;3.640;2023-06-22T05:15:57;101593.81;;;20.85;100.00
74103;BME280;62853;46.166;3.640;2023-06-22T05:18:27;101597.91;;;20.89;100.00
74103;BME280;62853;46.166;3.640;2023-06-22T05:20:54;101595.94;;;20.91;100.00
74103;BME280;62853;46.166;3.640;2023-06-22T05:23:20;101596.50;;;20.85;100.00
74103;BME280;62853;46.166;3.640;2023-06-22T05:25:45;101599.44;;;20.81;100.00
74103;BME280;62853;46.166;3.640;2023-06-22T05:28:10;101603.78;;;20.83;100.00
74103;BME280;62853;46.166;3.640;2023-06-22T05:30:37;101608.50;;;20.90;100.00
74103;BME280;62853;46.166;3.640;2023-06-22T05:33:02;101607.84;;;20.98;100.00
74103;BME280;62853;46.166;3.640;2023-06-22T05:35:27;101598.28;;;21.05;100.00
74103;BME280;62853;46.166;3.640;2023-06-22T05:37:54;101593.81;;;21.15;100.00
74103;BME280;62853;46.166;3.640;2023-06-22T05:40:19;101603.56;;;21.26;100.00
74103;BME280;62853;46.166;3.640;2023-06-22T05:42:44;101604.44;;;21.36;100.00
74103;BME280;62853;46.166;3.640;2023-06-22T05:45:10;101600.22;;;21.34;100.00
74103;BME280;62853;46.166;3.640;2023-06-22T05:47:39;101598.53;;;21.33;100.00
74103;BME280;62853;46.166;3.640;2023-06-22T05:50:05;101605.75;;;21.42;100.00
74103;BME280;62853;46.166;3.640;2023-06-22T05:52:33;101609.28;;;21.43;100.00
74103;BME280;62853;46.166;3.640;2023-06-22T05:55:03;101612.50;;;21.36;100.00
74103;BME280;62853;46.166;3.640;2023-06-22T06:01:23;101615.16;;;21.58;100.00
74103;BME280;62853;46.166;3.640;2023-06-22T06:03:55;101610.63;;;21.58;100.00
74103;BME280;62853;46.166;3.640;2023-06-22T06:06:21;101611.94;;;21.64;100.00
74103;BME280;62853;46.166;3.640;2023-06-22T06:08:47;101606.00;;;21.70;100.00
74103;BME280;62853;46.166;3.640;2023-06-22T06:11:13;101602.34;;;21.81;100.00
74103;BME280;62853;46.166;3.640;2023-06-22T06:13:38;101603.34;;;21.89;100.00
74103;BME280;62853;46.166;3.640;2023-06-22T06:16:04;101602.22;;;21.82;100.00
74103;BME280;62853;46.166;3.640;2023-06-22T06:19:06;101599.81;;;21.79;100.00
74103;BME280;62853;46.166;3.640;2023-06-22T06:21:31;101607.84;;;21.69;100.00
74103;BME280;62853;46.166;3.640;2023-06-22T06:23:56;101615.31;;;21.66;100.00
74103;BME280;62853;46.166;3.640;2023-06-22T06:26:28;101613.44;;;21.57;100.00
74103;BME280;62853;46.166;3.640;2023-06-22T06:29:01;101608.97;;;21.77;100.00
74103;BME280;62853;46.166;3.640;2023-06-22T06:31:27;101602.06;;;21.84;100.00
74103;BME280;62853;46.166;3.640;2023-06-22T06:33:54;101607.53;;;21.63;100.00
74103;BME280;62853;46.166;3.640;2023-06-22T06:46:20;101611.47;;;21.49;100.00
74103;BME280;62853;46.166;3.640;2023-06-22T06:52:21;101614.97;;;21.49;100.00
74103;BME280;62853;46.166;3.640;2023-06-22T06:54:46;101612.53;;;21.46;100.00
74103;BME280;62853;46.166;3.640;2023-06-22T06:57:12;101621.91;;;21.52;100.00
74103;BME280;62853;46.166;3.640;2023-06-22T06:59:40;101625.16;;;21.55;100.00
74103;BME280;62853;46.166;3.640;2023-06-22T07:02:05;101630.53;;;21.55;100.00
74103;BME280;62853;46.166;3.640;2023-06-22T07:04:31;101625.88;;;21.58;100.00
74103;BME280;62853;46.166;3.640;2023-06-22T07:06:56;101621.34;;;21.58;100.00
74103;BME280;62853;46.166;3.640;2023-06-22T07:09:21;101623.75;;;21.61;100.00
74103;BME280;62853;46.166;3.640;2023-06-22T07:11:47;101620.09;;;21.62;100.00
74103;BME280;62853;46.166;3.640;2023-06-22T07:35:07;101560.97;;;22.22;100.00
74103;BME280;62853;46.166;3.640;2023-06-22T07:37:33;101564.22;;;22.26;100.00
74103;BME280;62853;46.166;3.640;2023-06-22T07:39:59;101572.28;;;22.45;100.00
74103;BME280;62853;46.166;3.640;2023-06-22T07:42:25;101554.75;;;22.51;100.00
74103;BME280;62853;46.166;3.640;2023-06-22T07:44:51;101542.00;;;22.63;100.00
74103;BME280;62853;46.166;3.640;2023-06-22T07:50:24;101539.34;;;23.00;100.00
74103;BME280;62853;46.166;3.640;2023-06-22T07:52:50;101531.94;;;23.12;100.00
74103;BME280;62853;46.166;3.640;2023-06-22T07:55:17;101520.44;;;23.20;100.00
74103;BME280;62853;46.166;3.640;2023-06-22T07:57:49;101516.84;;;23.29;100.00
74103;BME280;62853;46.166;3.640;2023-06-22T08:00:17;101504.25;;;23.30;100.00
74103;BME280;62853;46.166;3.640;2023-06-22T08:02:45;101498.88;;;23.30;100.00
74103;BME280;62853;46.166;3.640;2023-06-22T08:05:11;101484.28;;;23.32;100.00
74103;BME280;62853;46.166;3.640;2023-06-22T08:07:38;101484.06;;;23.26;100.00
74103;BME280;62853;46.166;3.640;2023-06-22T08:10:12;101485.06;;;23.25;100.00
74103;BME280;62853;46.166;3.640;2023-06-22T08:12:41;101487.66;;;23.16;100.00
74103;BME280;62853;46.166;3.640;2023-06-22T08:15:07;101483.88;;;23.09;100.00
74103;BME280;62853;46.166;3.640;2023-06-22T08:17:33;101482.53;;;22.95;100.00
74103;BME280;62853;46.166;3.640;2023-06-22T08:26:25;101484.38;;;22.85;100.00
74103;BME280;62853;46.166;3.640;2023-06-22T08:28:50;101486.66;;;22.80;100.00
74103;BME280;62853;46.166;3.640;2023-06-22T08:31:16;101490.94;;;22.73;100.00
74103;BME280;62853;46.166;3.640;2023-06-22T08:33:41;101487.72;;;22.69;100.00
74103;BME280;62853;46.166;3.640;2023-06-22T08:36:36;101493.78;;;22.71;100.00
74103;BME280;62853;46.166;3.640;2023-06-22T08:39:07;101485.72;;;22.71;100.00
74103;BME280;62853;46.166;3.640;2023-06-22T08:41:32;101487.28;;;22.74;100.00
74103;BME280;62853;46.166;3.640;2023-06-22T08:43:57;101487.00;;;22.77;100.00
74103;BME280;62853;46.166;3.640;2023-06-22T08:46:23;101476.53;;;22.74;100.00
74103;BME280;62853;46.166;3.640;2023-06-22T08:49:05;101483.19;;;22.70;100.00
74103;BME280;62853;46.166;3.640;2023-06-22T08:51:31;101471.63;;;22.59;100.00
74103;BME280;62853;46.166;3.640;2023-06-22T08:53:56;101478.16;;;22.57;100.00
74103;BME280;62853;46.166;3.640;2023-06-22T08:56:22;101479.41;;;22.62;100.00
74103;BME280;62853;46.166;3.640;2023-06-22T08:58:48;101469.47;;;22.73;100.00
74103;BME280;62853;46.166;3.640;2023-06-22T09:01:13;101466.06;;;22.80;100.00
74103;BME280;62853;46.166;3.640;2023-06-22T09:03:42;101466.31;;;23.05;100.00
74103;BME280;62853;46.166;3.640;2023-06-22T09:06:08;101463.94;;;23.30;100.00
74103;BME280;62853;46.166;3.640;2023-06-22T09:08:35;101461.41;;;23.46;100.00
74103;BME280;62853;46.166;3.640;2023-06-22T09:11:16;101457.09;;;23.71;100.00
74103;BME280;62853;46.166;3.640;2023-06-22T09:13:41;101456.94;;;23.91;100.00
74103;BME280;62853;46.166;3.640;2023-06-22T09:16:07;101454.50;;;24.24;100.00
74103;BME280;62853;46.166;3.640;2023-06-22T09:18:39;101446.16;;;24.43;100.00
74103;BME280;62853;46.166;3.640;2023-06-22T09:21:05;101451.50;;;24.61;100.00
74103;BME280;62853;46.166;3.640;2023-06-22T09:23:30;101452.84;;;24.65;100.00
74103;BME280;62853;46.166;3.640;2023-06-22T09:25:55;101456.06;;;24.61;100.00
74103;BME280;62853;46.166;3.640;2023-06-22T09:28:21;101448.53;;;24.46;100.00
74103;BME280;62853;46.166;3.640;2023-06-22T09:30:46;101449.00;;;24.42;100.00
74103;BME280;62853;46.166;3.640;2023-06-22T09:33:12;101446.78;;;24.29;100.00
74103;BME280;62853;46.166;3.640;2023-06-22T09:35:38;101452.72;;;24.14;100.00
74103;BME280;62853;46.166;3.640;2023-06-22T09:38:03;101444.94;;;24.03;100.00
74103;BME280;62853;46.166;3.640;2023-06-22T09:40:31;101449.16;;;23.88;100.00
74103;BME280;62853;46.166;3.640;2023-06-22T09:43:00;101443.00;;;23.77;100.00
74103;BME280;62853;46.166;3.640;2023-06-22T09:45:25;101445.41;;;23.63;100.00
74103;BME280;62853;46.166;3.640;2023-06-22T09:47:51;101442.44;;;23.48;100.00
74103;BME280;62853;46.166;3.640;2023-06-22T09:50:16;101438.56;;;23.32;100.00
74103;BME280;62853;46.166;3.640;2023-06-22T09:52:42;101433.31;;;23.23;100.00
74103;BME280;62853;46.166;3.640;2023-06-22T09:55:09;101434.28;;;23.21;100.00
74103;BME280;62853;46.166;3.640;2023-06-22T09:57:35;101438.97;;;23.19;100.00
74103;BME280;62853;46.166;3.640;2023-06-22T10:00:00;101434.88;;;23.15;100.00
74103;BME280;62853;46.166;3.640;2023-06-22T10:02:25;101439.28;;;23.16;100.00
74103;BME280;62853;46.166;3.640;2023-06-22T10:04:51;101436.19;;;23.11;100.00
74103;BME280;62853;46.166;3.640;2023-06-22T10:07:16;101438.91;;;23.01;100.00
74103;BME280;62853;46.166;3.640;2023-06-22T10:09:42;101442.38;;;22.94;100.00
74103;BME280;62853;46.166;3.640;2023-06-22T10:12:07;101437.16;;;22.92;100.00
74103;BME280;62853;46.166;3.640;2023-06-22T10:14:33;101438.81;;;22.93;100.00
74103;BME280;62853;46.166;3.640;2023-06-22T10:16:58;101442.03;;;22.97;100.00
74103;BME280;62853;46.166;3.640;2023-06-22T10:19:23;101449.97;;;22.98;100.00
74103;BME280;62853;46.166;3.640;2023-06-22T10:21:49;101446.19;;;22.91;100.00
74103;BME280;62853;46.166;3.640;2023-06-22T10:24:14;101452.91;;;22.77;100.00
74103;BME280;62853;46.166;3.640;2023-06-22T10:26:41;101453.84;;;22.58;100.00
74103;BME280;62853;46.166;3.640;2023-06-22T10:29:06;101461.81;;;22.40;100.00
74103;BME280;62853;46.166;3.640;2023-06-22T10:31:33;101460.88;;;22.32;100.00
74103;BME280;62853;46.166;3.640;2023-06-22T10:33:58;101466.38;;;22.20;100.00
74103;BME280;62853;46.166;3.640;2023-06-22T10:36:23;101473.31;;;22.13;100.00
74103;BME280;62853;46.166;3.640;2023-06-22T10:38:49;101481.91;;;22.17;100.00
74103;BME280;62853;46.166;3.640;2023-06-22T10:41:15;101489.84;;;22.08;100.00
74103;BME280;62853;46.166;3.640;2023-06-22T10:43:41;101483.78;;;21.97;100.00
74103;BME280;62853;46.166;3.640;2023-06-22T10:46:06;101484.78;;;21.76;100.00
74103;BME280;62853;46.166;3.640;2023-06-22T10:48:32;101490.69;;;21.60;100.00
74103;BME280;62853;46.166;3.640;2023-06-22T10:50:57;101508.47;;;21.51;100.00
74103;BME280;62853;46.166;3.640;2023-06-22T10:53:23;101497.28;;;21.36;100.00
74103;BME280;62853;46.166;3.640;2023-06-22T10:55:48;101499.97;;;21.27;100.00
74103;BME280;62853;46.166;3.640;2023-06-22T10:58:14;101496.09;;;21.19;100.00
74103;BME280;62853;46.166;3.640;2023-06-22T11:00:39;101504.59;;;21.15;100.00
74103;BME280;62853;46.166;3.640;2023-06-22T11:03:05;101500.72;;;21.08;100.00
74103;BME280;62853;46.166;3.640;2023-06-22T11:05:31;101511.13;;;21.01;100.00
74103;BME280;62853;46.166;3.640;2023-06-22T11:07:57;101503.38;;;20.88;100.00
74103;BME280;62853;46.166;3.640;2023-06-22T11:10:23;101517.22;;;20.72;100.00
74103;BME280;62853;46.166;3.640;2023-06-22T11:12:48;101528.19;;;20.69;100.00
74103;BME280;62853;46.166;3.640;2023-06-22T11:15:14;101518.75;;;20.65;100.00
74103;BME280;62853;46.166;3.640;2023-06-22T11:17:39;101515.59;;;20.60;100.00
74103;BME280;62853;46.166;3.640;2023-06-22T11:20:05;101518.59;;;20.45;100.00
74103;BME280;62853;46.166;3.640;2023-06-22T11:22:37;101512.03;;;20.50;100.00
74103;BME280;62853;46.166;3.640;2023-06-22T11:25:05;101530.94;;;20.58;100.00
74103;BME280;62853;46.166;3.640;2023-06-22T11:27:30;101535.91;;;20.41;100.00
74103;BME280;62853;46.166;3.640;2023-06-22T11:29:56;101523.47;;;20.31;100.00
74103;BME280;62853;46.166;3.640;2023-06-22T11:32:21;101507.34;;;20.21;100.00
74103;BME280;62853;46.166;3.640;2023-06-22T11:34:46;101503.84;;;20.20;100.00
74103;BME280;62853;46.166;3.640;2023-06-22T11:37:12;101491.31;;;20.21;100.00
74103;BME280;62853;46.166;3.640;2023-06-22T11:39:38;101489.53;;;20.10;100.00
74103;BME280;62853;46.166;3.640;2023-06-22T11:42:03;101483.16;;;20.22;100.00
74103;BME280;62853;46.166;3.640;2023-06-22T11:44:28;101480.84;;;20.18;100.00
74103;BME280;62853;46.166;3.640;2023-06-22T11:46:54;101476.03;;;20.12;100.00
74103;BME280;62853;46.166;3.640;2023-06-22T11:49:19;101464.31;;;20.24;100.00
74103;BME280;62853;46.166;3.640;2023-06-22T11:51:45;101474.34;;;20.11;100.00
74103;BME280;62853;46.166;3.640;2023-06-22T11:54:10;101472.91;;;20.06;100.00
74103;BME280;62853;46.166;3.640;2023-06-22T11:56:35;101463.97;;;19.96;100.00
74103;BME280;62853;46.166;3.640;2023-06-22T11:59:01;101463.91;;;20.07;100.00
74103;BME280;62853;46.166;3.640;2023-06-22T12:01:26;101448.91;;;20.16;100.00
74103;BME280;62853;46.166;3.640;2023-06-22T12:03:51;101452.69;;;20.14;100.00
74103;BME280;62853;46.166;3.640;2023-06-22T12:06:17;101455.38;;;20.14;100.00
74103;BME280;62853;46.166;3.640;2023-06-22T12:08:42;101451.19;;;20.00;100.00
74103;BME280;62853;46.166;3.640;2023-06-22T12:11:08;101452.75;;;19.81;100.00
74103;BME280;62853;46.166;3.640;2023-06-22T12:13:33;101452.75;;;19.81;100.00
74103;BME280;62853;46.166;3.640;2023-06-22T12:15:58;101440.50;;;19.79;100.00
74103;BME280;62853;46.166;3.640;2023-06-22T12:18:24;101435.28;;;19.77;100.00
74103;BME280;62853;46.166;3.640;2023-06-22T12:20:49;101435.69;;;19.94;100.00
74103;BME280;62853;46.166;3.640;2023-06-22T12:23:15;101428.88;;;19.89;100.00
74103;BME280;62853;46.166;3.640;2023-06-22T12:25:40;101426.47;;;19.86;100.00
74103;BME280;62853;46.166;3.640;2023-06-22T12:28:05;101425.38;;;19.89;100.00
74103;BME280;62853;46.166;3.640;2023-06-22T12:30:33;101432.81;;;19.85;100.00
74103;BME280;62853;46.166;3.640;2023-06-22T12:32:58;101422.88;;;19.76;100.00
74103;BME280;62853;46.166;3.640;2023-06-22T12:35:24;101424.94;;;19.73;100.00
74103;BME280;62853;46.166;3.640;2023-06-22T12:37:49;101430.16;;;19.74;100.00
74103;BME280;62853;46.166;3.640;2023-06-22T12:40:15;101423.97;;;19.74;100.00
74103;BME280;62853;46.166;3.640;2023-06-22T12:42:40;101430.84;;;19.87;100.00
74103;BME280;62853;46.166;3.640;2023-06-22T12:45:07;101426.41;;;19.98;100.00
74103;BME280;62853;46.166;3.640;2023-06-22T12:47:32;101412.25;;;19.86;100.00
74103;BME280;62853;46.166;3.640;2023-06-22T12:49:58;101407.63;;;19.88;100.00
74103;BME280;62853;46.166;3.640;2023-06-22T12:52:24;101409.13;;;19.81;100.00
74103;BME280;62853;46.166;3.640;2023-06-22T12:54:49;101400.59;;;19.87;100.00
74103;BME280;62853;46.166;3.640;2023-06-22T12:57:14;101416.44;;;19.79;100.00
74103;BME280;62853;46.166;3.640;2023-06-22T12:59:40;101411.25;;;19.66;100.00
74103;BME280;62853;46.166;3.640;2023-06-22T13:02:05;101415.22;;;19.50;100.00
74103;BME280;62853;46.166;3.640;2023-06-22T13:04:31;101413.19;;;19.43;100.00
74103;BME280;62853;46.166;3.640;2023-06-22T13:06:56;101416.00;;;19.41;100.00
74103;BME280;62853;46.166;3.640;2023-06-22T13:09:22;101408.59;;;19.33;100.00
74103;BME280;62853;46.166;3.640;2023-06-22T13:11:47;101403.75;;;19.27;100.00
74103;BME280;62853;46.166;3.640;2023-06-22T13:14:12;101391.50;;;19.36;100.00
74103;BME280;62853;46.166;3.640;2023-06-22T13:16:38;101387.69;;;19.39;100.00
74103;BME280;62853;46.166;3.640;2023-06-22T13:19:03;101377.84;;;19.39;100.00
74103;BME280;62853;46.166;3.640;2023-06-22T13:21:30;101375.84;;;19.52;100.00
74103;BME280;62853;46.166;3.640;2023-06-22T13:23:55;101374.53;;;19.47;100.00
74103;BME280;62853;46.166;3.640;2023-06-22T13:26:21;101360.97;;;19.39;100.00
74103;BME280;62853;46.166;3.640;2023-06-22T13:28:47;101351.66;;;19.33;100.00